sensor_id;sensor_type;location;lat;lon;timestamp;P1;durP1;ratioP1;P2;durP2;ratioP2
8791;SDS011;4432;50.890;4.744;2023-04-03T00:01:37;5.57;;;4.00;;
8791;SDS011;4432;50.890;4.744;2023-04-03T00:04:04;4.03;;;3.17;;
8791;SDS011;4432;50.890;4.744;2023-04-03T00:06:30;3.77;;;3.37;;
8791;SDS011;4432;50.890;4.744;2023-04-03T00:08:57;7.07;;;3.60;;
8791;SDS011;4432;50.890;4.744;2023-04-03T00:11:23;7.67;;;4.57;;
8791;SDS011;4432;50.890;4.744;2023-04-03T00:13:49;6.40;;;3.93;;
8791;SDS011;4432;50.890;4.744;2023-04-03T00:16:15;8.83;;;5.13;;
8791;SDS011;4432;50.890;4.744;2023-04-03T00:18:41;5.17;;;4.20;;
8791;SDS011;4432;50.890;4.744;2023-04-03T00:21:07;4.07;;;3.67;;
8791;SDS011;4432;50.890;4.744;2023-04-03T00:23:35;5.60;;;3.43;;
8791;SDS011;4432;50.890;4.744;2023-04-03T00:26:01;4.60;;;3.53;;
8791;SDS011;4432;50.890;4.744;2023-04-03T00:28:27;3.27;;;2.83;;
8791;SDS011;4432;50.890;4.744;2023-04-03T00:30:53;4.17;;;2.80;;
8791;SDS011;4432;50.890;4.744;2023-04-03T00:33:18;4.60;;;3.67;;
8791;SDS011;4432;50.890;4.744;2023-04-03T00:35:49;3.93;;;3.17;;
8791;SDS011;4432;50.890;4.744;2023-04-03T00:38:15;8.27;;;3.90;;
8791;SDS011;4432;50.890;4.744;2023-04-03T00:40:43;3.87;;;3.00;;
8791;SDS011;4432;50.890;4.744;2023-04-03T00:43:12;5.73;;;3.90;;
8791;SDS011;4432;50.890;4.744;2023-04-03T00:45:45;5.23;;;3.87;;
8791;SDS011;4432;50.890;4.744;2023-04-03T00:50:57;9.10;;;3.70;;
8791;SDS011;4432;50.890;4.744;2023-04-03T00:53:26;3.97;;;3.00;;
8791;SDS011;4432;50.890;4.744;2023-04-03T00:55:56;4.13;;;3.47;;
8791;SDS011;4432;50.890;4.744;2023-04-03T00:58:25;4.53;;;3.50;;
8791;SDS011;4432;50.890;4.744;2023-04-03T01:00:58;5.40;;;3.73;;
8791;SDS011;4432;50.890;4.744;2023-04-03T01:03:28;4.60;;;3.67;;
8791;SDS011;4432;50.890;4.744;2023-04-03T01:05:56;14.30;;;4.60;;
8791;SDS011;4432;50.890;4.744;2023-04-03T01:08:22;7.00;;;3.57;;
8791;SDS011;4432;50.890;4.744;2023-04-03T01:10:49;6.77;;;3.57;;
8791;SDS011;4432;50.890;4.744;2023-04-03T01:13:26;4.90;;;3.10;;
8791;SDS011;4432;50.890;4.744;2023-04-03T01:15:55;3.53;;;3.03;;
8791;SDS011;4432;50.890;4.744;2023-04-03T01:18:22;4.60;;;3.67;;
8791;SDS011;4432;50.890;4.744;2023-04-03T01:23:32;7.47;;;3.90;;
8791;SDS011;4432;50.890;4.744;2023-04-03T01:26:09;4.60;;;3.47;;
8791;SDS011;4432;50.890;4.744;2023-04-03T01:28:37;4.87;;;3.60;;
8791;SDS011;4432;50.890;4.744;2023-04-03T01:33:32;7.83;;;3.93;;
8791;SDS011;4432;50.890;4.744;2023-04-03T01:35:58;6.73;;;4.43;;
8791;SDS011;4432;50.890;4.744;2023-04-03T01:38:24;6.07;;;3.57;;
8791;SDS011;4432;50.890;4.744;2023-04-03T01:40:50;7.67;;;4.03;;
8791;SDS011;4432;50.890;4.744;2023-04-03T01:43:16;4.60;;;3.47;;
8791;SDS011;4432;50.890;4.744;2023-04-03T01:45:42;4.77;;;3.73;;
8791;SDS011;4432;50.890;4.744;2023-04-03T01:48:07;6.67;;;4.93;;
8791;SDS011;4432;50.890;4.744;2023-04-03T01:50:33;5.17;;;3.80;;
8791;SDS011;4432;50.890;4.744;2023-04-03T01:52:59;5.87;;;3.83;;
8791;SDS011;4432;50.890;4.744;2023-04-03T01:55:25;4.97;;;3.97;;
8791;SDS011;4432;50.890;4.744;2023-04-03T01:57:50;12.50;;;4.83;;
8791;SDS011;4432;50.890;4.744;2023-04-03T02:00:16;6.17;;;4.00;;
8791;SDS011;4432;50.890;4.744;2023-04-03T02:02:42;4.67;;;3.77;;
8791;SDS011;4432;50.890;4.744;2023-04-03T02:05:08;3.57;;;3.27;;
8791;SDS011;4432;50.890;4.744;2023-04-03T02:07:34;5.43;;;3.63;;
8791;SDS011;4432;50.890;4.744;2023-04-03T02:10:00;7.00;;;3.87;;
8791;SDS011;4432;50.890;4.744;2023-04-03T02:12:25;4.37;;;3.57;;
8791;SDS011;4432;50.890;4.744;2023-04-03T02:14:51;5.77;;;4.13;;
8791;SDS011;4432;50.890;4.744;2023-04-03T02:17:17;4.40;;;3.63;;
8791;SDS011;4432;50.890;4.744;2023-04-03T02:19:43;4.60;;;3.97;;
8791;SDS011;4432;50.890;4.744;2023-04-03T02:22:09;4.07;;;3.43;;
8791;SDS011;4432;50.890;4.744;2023-04-03T02:24:35;5.10;;;3.00;;
8791;SDS011;4432;50.890;4.744;2023-04-03T02:27:01;8.43;;;3.30;;
8791;SDS011;4432;50.890;4.744;2023-04-03T02:29:26;4.70;;;3.43;;
8791;SDS011;4432;50.890;4.744;2023-04-03T02:31:52;4.13;;;3.57;;
8791;SDS011;4432;50.890;4.744;2023-04-03T02:34:18;5.27;;;3.80;;
8791;SDS011;4432;50.890;4.744;2023-04-03T02:36:44;3.87;;;3.37;;
8791;SDS011;4432;50.890;4.744;2023-04-03T02:39:10;5.10;;;3.97;;
8791;SDS011;4432;50.890;4.744;2023-04-03T02:41:36;4.70;;;3.80;;
8791;SDS011;4432;50.890;4.744;2023-04-03T02:44:02;10.90;;;3.40;;
8791;SDS011;4432;50.890;4.744;2023-04-03T02:46:29;5.60;;;3.27;;
8791;SDS011;4432;50.890;4.744;2023-04-03T02:48:56;9.13;;;3.93;;
8791;SDS011;4432;50.890;4.744;2023-04-03T02:51:22;4.77;;;2.60;;
8791;SDS011;4432;50.890;4.744;2023-04-03T02:53:48;6.00;;;3.40;;
8791;SDS011;4432;50.890;4.744;2023-04-03T02:56:15;6.20;;;4.27;;
8791;SDS011;4432;50.890;4.744;2023-04-03T02:58:42;7.67;;;4.50;;
8791;SDS011;4432;50.890;4.744;2023-04-03T03:01:08;4.40;;;3.57;;
8791;SDS011;4432;50.890;4.744;2023-04-03T03:03:34;4.50;;;3.63;;
8791;SDS011;4432;50.890;4.744;2023-04-03T03:06:07;4.93;;;3.93;;
8791;SDS011;4432;50.890;4.744;2023-04-03T03:08:34;3.80;;;3.03;;
8791;SDS011;4432;50.890;4.744;2023-04-03T03:11:01;6.97;;;3.90;;
8791;SDS011;4432;50.890;4.744;2023-04-03T03:13:27;5.37;;;3.90;;
8791;SDS011;4432;50.890;4.744;2023-04-03T03:15:53;6.63;;;4.30;;
8791;SDS011;4432;50.890;4.744;2023-04-03T03:18:19;4.50;;;3.70;;
8791;SDS011;4432;50.890;4.744;2023-04-03T03:20:45;5.60;;;3.63;;
8791;SDS011;4432;50.890;4.744;2023-04-03T03:23:11;6.53;;;4.70;;
8791;SDS011;4432;50.890;4.744;2023-04-03T03:25:40;6.57;;;4.17;;
8791;SDS011;4432;50.890;4.744;2023-04-03T03:28:06;5.07;;;4.27;;
8791;SDS011;4432;50.890;4.744;2023-04-03T03:30:32;4.23;;;3.47;;
8791;SDS011;4432;50.890;4.744;2023-04-03T03:32:58;4.63;;;3.57;;
8791;SDS011;4432;50.890;4.744;2023-04-03T03:35:24;3.97;;;3.17;;
8791;SDS011;4432;50.890;4.744;2023-04-03T03:37:50;6.80;;;3.60;;
8791;SDS011;4432;50.890;4.744;2023-04-03T03:40:16;4.47;;;3.73;;
8791;SDS011;4432;50.890;4.744;2023-04-03T03:42:42;5.67;;;3.73;;
8791;SDS011;4432;50.890;4.744;2023-04-03T03:45:08;5.60;;;4.30;;
8791;SDS011;4432;50.890;4.744;2023-04-03T03:47:34;6.33;;;3.77;;
8791;SDS011;4432;50.890;4.744;2023-04-03T03:50:00;6.63;;;4.23;;
8791;SDS011;4432;50.890;4.744;2023-04-03T03:52:26;3.83;;;3.37;;
8791;SDS011;4432;50.890;4.744;2023-04-03T03:54:52;4.43;;;2.67;;
8791;SDS011;4432;50.890;4.744;2023-04-03T03:57:18;4.03;;;3.63;;
8791;SDS011;4432;50.890;4.744;2023-04-03T03:59:44;5.53;;;3.67;;
8791;SDS011;4432;50.890;4.744;2023-04-03T04:02:10;3.53;;;2.93;;
8791;SDS011;4432;50.890;4.744;2023-04-03T04:04:36;6.03;;;3.80;;
8791;SDS011;4432;50.890;4.744;2023-04-03T04:07:02;8.37;;;3.70;;
8791;SDS011;4432;50.890;4.744;2023-04-03T04:09:28;4.97;;;3.67;;
8791;SDS011;4432;50.890;4.744;2023-04-03T04:11:54;4.23;;;3.20;;
8791;SDS011;4432;50.890;4.744;2023-04-03T04:14:20;7.83;;;3.90;;
8791;SDS011;4432;50.890;4.744;2023-04-03T04:16:46;4.63;;;3.50;;
8791;SDS011;4432;50.890;4.744;2023-04-03T04:19:13;10.27;;;3.33;;
8791;SDS011;4432;50.890;4.744;2023-04-03T04:21:39;4.43;;;4.03;;
8791;SDS011;4432;50.890;4.744;2023-04-03T04:24:06;12.70;;;7.90;;
8791;SDS011;4432;50.890;4.744;2023-04-03T04:26:32;4.80;;;4.27;;
8791;SDS011;4432;50.890;4.744;2023-04-03T04:28:59;4.97;;;3.80;;
8791;SDS011;4432;50.890;4.744;2023-04-03T04:31:25;4.63;;;4.10;;
8791;SDS011;4432;50.890;4.744;2023-04-03T04:33:51;5.27;;;3.67;;
8791;SDS011;4432;50.890;4.744;2023-04-03T04:36:17;5.70;;;3.90;;
8791;SDS011;4432;50.890;4.744;2023-04-03T04:38:43;5.20;;;3.97;;
8791;SDS011;4432;50.890;4.744;2023-04-03T04:41:09;8.73;;;4.13;;
8791;SDS011;4432;50.890;4.744;2023-04-03T04:43:35;12.10;;;4.67;;
8791;SDS011;4432;50.890;4.744;2023-04-03T04:46:05;10.30;;;5.03;;
8791;SDS011;4432;50.890;4.744;2023-04-03T04:48:32;6.77;;;4.67;;
8791;SDS011;4432;50.890;4.744;2023-04-03T04:50:59;6.63;;;5.17;;
8791;SDS011;4432;50.890;4.744;2023-04-03T04:53:24;8.50;;;4.70;;
8791;SDS011;4432;50.890;4.744;2023-04-03T04:55:51;6.03;;;4.83;;
8791;SDS011;4432;50.890;4.744;2023-04-03T04:58:17;8.33;;;5.17;;
8791;SDS011;4432;50.890;4.744;2023-04-03T05:00:43;5.10;;;3.93;;
8791;SDS011;4432;50.890;4.744;2023-04-03T05:03:09;7.13;;;5.50;;
8791;SDS011;4432;50.890;4.744;2023-04-03T05:05:35;5.27;;;4.73;;
8791;SDS011;4432;50.890;4.744;2023-04-03T05:08:01;6.80;;;4.97;;
8791;SDS011;4432;50.890;4.744;2023-04-03T05:10:27;7.23;;;4.33;;
8791;SDS011;4432;50.890;4.744;2023-04-03T05:12:53;6.10;;;4.40;;
8791;SDS011;4432;50.890;4.744;2023-04-03T05:15:19;6.40;;;4.47;;
8791;SDS011;4432;50.890;4.744;2023-04-03T05:17:45;7.13;;;4.80;;
8791;SDS011;4432;50.890;4.744;2023-04-03T05:20:11;7.37;;;4.37;;
8791;SDS011;4432;50.890;4.744;2023-04-03T05:22:37;5.63;;;3.93;;
8791;SDS011;4432;50.890;4.744;2023-04-03T05:25:03;4.90;;;4.13;;
8791;SDS011;4432;50.890;4.744;2023-04-03T05:27:30;6.00;;;4.03;;
8791;SDS011;4432;50.890;4.744;2023-04-03T05:29:56;4.73;;;3.77;;
8791;SDS011;4432;50.890;4.744;2023-04-03T05:32:22;5.47;;;3.70;;
8791;SDS011;4432;50.890;4.744;2023-04-03T05:34:50;4.50;;;3.50;;
8791;SDS011;4432;50.890;4.744;2023-04-03T05:37:16;7.23;;;4.30;;
8791;SDS011;4432;50.890;4.744;2023-04-03T05:39:42;7.30;;;4.70;;
8791;SDS011;4432;50.890;4.744;2023-04-03T05:42:08;6.17;;;4.83;;
8791;SDS011;4432;50.890;4.744;2023-04-03T05:44:34;5.43;;;4.50;;
8791;SDS011;4432;50.890;4.744;2023-04-03T05:47:00;6.47;;;4.33;;
8791;SDS011;4432;50.890;4.744;2023-04-03T05:49:26;6.03;;;3.60;;
8791;SDS011;4432;50.890;4.744;2023-04-03T05:51:52;7.90;;;5.03;;
8791;SDS011;4432;50.890;4.744;2023-04-03T05:56:51;6.00;;;4.03;;
8791;SDS011;4432;50.890;4.744;2023-04-03T05:59:17;5.87;;;5.13;;
8791;SDS011;4432;50.890;4.744;2023-04-03T06:01:44;6.57;;;4.53;;
8791;SDS011;4432;50.890;4.744;2023-04-03T06:04:11;11.30;;;6.20;;
8791;SDS011;4432;50.890;4.744;2023-04-03T06:09:17;5.57;;;4.70;;
8791;SDS011;4432;50.890;4.744;2023-04-03T06:11:45;7.13;;;5.10;;
8791;SDS011;4432;50.890;4.744;2023-04-03T06:14:11;11.53;;;6.20;;
8791;SDS011;4432;50.890;4.744;2023-04-03T06:16:37;7.93;;;7.10;;
8791;SDS011;4432;50.890;4.744;2023-04-03T06:19:04;13.73;;;8.17;;
8791;SDS011;4432;50.890;4.744;2023-04-03T06:21:31;17.93;;;8.57;;
8791;SDS011;4432;50.890;4.744;2023-04-03T06:23:57;11.13;;;8.07;;
8791;SDS011;4432;50.890;4.744;2023-04-03T06:26:23;16.93;;;9.80;;
8791;SDS011;4432;50.890;4.744;2023-04-03T06:28:49;16.63;;;10.77;;
8791;SDS011;4432;50.890;4.744;2023-04-03T06:31:14;19.43;;;11.30;;
8791;SDS011;4432;50.890;4.744;2023-04-03T06:33:40;13.77;;;9.70;;
8791;SDS011;4432;50.890;4.744;2023-04-03T06:36:06;10.60;;;8.47;;
8791;SDS011;4432;50.890;4.744;2023-04-03T06:38:33;9.93;;;8.20;;
8791;SDS011;4432;50.890;4.744;2023-04-03T06:41:00;13.77;;;7.30;;
8791;SDS011;4432;50.890;4.744;2023-04-03T06:43:25;9.43;;;7.77;;
8791;SDS011;4432;50.890;4.744;2023-04-03T06:45:51;10.80;;;7.83;;
8791;SDS011;4432;50.890;4.744;2023-04-03T06:48:17;11.63;;;7.50;;
8791;SDS011;4432;50.890;4.744;2023-04-03T06:50:43;8.83;;;6.60;;
8791;SDS011;4432;50.890;4.744;2023-04-03T06:53:09;9.20;;;7.07;;
8791;SDS011;4432;50.890;4.744;2023-04-03T06:55:35;10.40;;;8.07;;
8791;SDS011;4432;50.890;4.744;2023-04-03T06:58:02;12.30;;;7.80;;
8791;SDS011;4432;50.890;4.744;2023-04-03T07:00:29;13.23;;;7.47;;
8791;SDS011;4432;50.890;4.744;2023-04-03T07:02:55;10.17;;;6.77;;
8791;SDS011;4432;50.890;4.744;2023-04-03T07:05:22;10.83;;;5.30;;
8791;SDS011;4432;50.890;4.744;2023-04-03T07:07:49;8.37;;;5.33;;
8791;SDS011;4432;50.890;4.744;2023-04-03T07:10:16;5.20;;;4.10;;
8791;SDS011;4432;50.890;4.744;2023-04-03T07:12:42;4.80;;;4.30;;
8791;SDS011;4432;50.890;4.744;2023-04-03T07:15:08;5.83;;;4.50;;
8791;SDS011;4432;50.890;4.744;2023-04-03T07:17:34;6.03;;;4.20;;
8791;SDS011;4432;50.890;4.744;2023-04-03T07:20:02;4.10;;;3.67;;
8791;SDS011;4432;50.890;4.744;2023-04-03T07:22:29;5.10;;;3.83;;
8791;SDS011;4432;50.890;4.744;2023-04-03T07:24:55;5.17;;;4.00;;
8791;SDS011;4432;50.890;4.744;2023-04-03T07:27:21;4.50;;;4.10;;
8791;SDS011;4432;50.890;4.744;2023-04-03T07:29:47;5.27;;;3.90;;
8791;SDS011;4432;50.890;4.744;2023-04-03T07:32:13;5.53;;;3.53;;
8791;SDS011;4432;50.890;4.744;2023-04-03T07:34:40;6.17;;;3.73;;
8791;SDS011;4432;50.890;4.744;2023-04-03T07:37:06;6.13;;;3.53;;
8791;SDS011;4432;50.890;4.744;2023-04-03T07:39:34;5.47;;;3.27;;
8791;SDS011;4432;50.890;4.744;2023-04-03T07:42:00;6.60;;;3.67;;
8791;SDS011;4432;50.890;4.744;2023-04-03T07:44:26;6.03;;;4.30;;
8791;SDS011;4432;50.890;4.744;2023-04-03T07:46:53;3.93;;;3.53;;
8791;SDS011;4432;50.890;4.744;2023-04-03T07:49:20;4.93;;;3.67;;
8791;SDS011;4432;50.890;4.744;2023-04-03T07:51:48;4.77;;;3.90;;
8791;SDS011;4432;50.890;4.744;2023-04-03T07:54:14;8.17;;;5.27;;
8791;SDS011;4432;50.890;4.744;2023-04-03T07:56:40;4.57;;;3.07;;
8791;SDS011;4432;50.890;4.744;2023-04-03T07:59:08;5.90;;;3.50;;
8791;SDS011;4432;50.890;4.744;2023-04-03T08:01:35;3.77;;;2.67;;
8791;SDS011;4432;50.890;4.744;2023-04-03T08:04:01;4.70;;;3.70;;
8791;SDS011;4432;50.890;4.744;2023-04-03T08:06:27;3.20;;;2.90;;
8791;SDS011;4432;50.890;4.744;2023-04-03T08:08:54;4.10;;;2.93;;
8791;SDS011;4432;50.890;4.744;2023-04-03T08:11:21;5.70;;;4.40;;
8791;SDS011;4432;50.890;4.744;2023-04-03T08:13:48;3.83;;;2.90;;
8791;SDS011;4432;50.890;4.744;2023-04-03T08:16:18;5.37;;;2.97;;
8791;SDS011;4432;50.890;4.744;2023-04-03T08:18:46;2.60;;;2.40;;
8791;SDS011;4432;50.890;4.744;2023-04-03T08:21:13;4.37;;;2.60;;
8791;SDS011;4432;50.890;4.744;2023-04-03T08:23:39;3.13;;;2.63;;
8791;SDS011;4432;50.890;4.744;2023-04-03T08:26:10;3.03;;;2.70;;
8791;SDS011;4432;50.890;4.744;2023-04-03T08:28:40;2.67;;;2.23;;
8791;SDS011;4432;50.890;4.744;2023-04-03T08:31:07;5.03;;;2.17;;
8791;SDS011;4432;50.890;4.744;2023-04-03T08:33:36;4.07;;;2.40;;
8791;SDS011;4432;50.890;4.744;2023-04-03T08:36:06;3.50;;;2.63;;
8791;SDS011;4432;50.890;4.744;2023-04-03T08:38:41;5.93;;;2.33;;
8791;SDS011;4432;50.890;4.744;2023-04-03T08:41:14;4.30;;;1.97;;
8791;SDS011;4432;50.890;4.744;2023-04-03T08:49:43;4.70;;;3.03;;
8791;SDS011;4432;50.890;4.744;2023-04-03T08:52:21;2.00;;;1.90;;
8791;SDS011;4432;50.890;4.744;2023-04-03T08:54:52;1.73;;;1.63;;
8791;SDS011;4432;50.890;4.744;2023-04-03T08:57:40;3.07;;;1.57;;
8791;SDS011;4432;50.890;4.744;2023-04-03T09:00:19;2.87;;;2.30;;
8791;SDS011;4432;50.890;4.744;2023-04-03T09:02:48;2.57;;;2.20;;
8791;SDS011;4432;50.890;4.744;2023-04-03T09:07:44;3.20;;;2.07;;
8791;SDS011;4432;50.890;4.744;2023-04-03T09:10:13;5.03;;;2.53;;
8791;SDS011;4432;50.890;4.744;2023-04-03T09:12:48;1.67;;;1.57;;
8791;SDS011;4432;50.890;4.744;2023-04-03T09:15:21;4.50;;;2.40;;
8791;SDS011;4432;50.890;4.744;2023-04-03T09:25:56;3.30;;;2.70;;
8791;SDS011;4432;50.890;4.744;2023-04-03T09:28:29;5.13;;;2.43;;
8791;SDS011;4432;50.890;4.744;2023-04-03T09:30:56;4.83;;;2.07;;
8791;SDS011;4432;50.890;4.744;2023-04-03T09:33:24;2.40;;;2.10;;
8791;SDS011;4432;50.890;4.744;2023-04-03T09:35:51;2.37;;;1.87;;
8791;SDS011;4432;50.890;4.744;2023-04-03T09:38:20;4.27;;;1.90;;
8791;SDS011;4432;50.890;4.744;2023-04-03T09:40:51;2.23;;;1.60;;
8791;SDS011;4432;50.890;4.744;2023-04-03T09:43:30;2.07;;;1.73;;
8791;SDS011;4432;50.890;4.744;2023-04-03T09:49:03;2.13;;;1.93;;
8791;SDS011;4432;50.890;4.744;2023-04-03T09:51:30;2.33;;;2.13;;
8791;SDS011;4432;50.890;4.744;2023-04-03T09:53:57;3.37;;;1.87;;
8791;SDS011;4432;50.890;4.744;2023-04-03T09:56:27;2.50;;;1.93;;
8791;SDS011;4432;50.890;4.744;2023-04-03T10:01:34;3.23;;;1.67;;
8791;SDS011;4432;50.890;4.744;2023-04-03T10:04:15;4.60;;;2.03;;
8791;SDS011;4432;50.890;4.744;2023-04-03T10:06:49;2.20;;;1.50;;
8791;SDS011;4432;50.890;4.744;2023-04-03T10:09:24;2.63;;;1.60;;
8791;SDS011;4432;50.890;4.744;2023-04-03T10:12:00;6.50;;;1.90;;
8791;SDS011;4432;50.890;4.744;2023-04-03T10:14:30;3.57;;;1.77;;
8791;SDS011;4432;50.890;4.744;2023-04-03T10:25:32;1.80;;;1.20;;
8791;SDS011;4432;50.890;4.744;2023-04-03T10:28:31;2.47;;;1.80;;
8791;SDS011;4432;50.890;4.744;2023-04-03T10:31:11;4.63;;;1.20;;
8791;SDS011;4432;50.890;4.744;2023-04-03T10:33:42;2.63;;;1.30;;
8791;SDS011;4432;50.890;4.744;2023-04-03T10:52:47;1.20;;;1.10;;
8791;SDS011;4432;50.890;4.744;2023-04-03T10:55:53;2.43;;;1.50;;
8791;SDS011;4432;50.890;4.744;2023-04-03T10:58:32;1.23;;;1.13;;
8791;SDS011;4432;50.890;4.744;2023-04-03T11:01:37;1.20;;;1.10;;
8791;SDS011;4432;50.890;4.744;2023-04-03T11:04:06;0.93;;;0.93;;
8791;SDS011;4432;50.890;4.744;2023-04-03T11:06:37;1.40;;;1.30;;
8791;SDS011;4432;50.890;4.744;2023-04-03T11:11:49;2.00;;;1.27;;
8791;SDS011;4432;50.890;4.744;2023-04-03T11:14:42;2.03;;;1.40;;
8791;SDS011;4432;50.890;4.744;2023-04-03T11:24:57;3.40;;;1.53;;
8791;SDS011;4432;50.890;4.744;2023-04-03T11:27:24;0.40;;;0.40;;
8791;SDS011;4432;50.890;4.744;2023-04-03T11:29:52;0.77;;;0.77;;
8791;SDS011;4432;50.890;4.744;2023-04-03T11:34:57;0.70;;;0.70;;
8791;SDS011;4432;50.890;4.744;2023-04-03T11:37:46;1.53;;;1.07;;
8791;SDS011;4432;50.890;4.744;2023-04-03T11:42:47;1.37;;;1.00;;
8791;SDS011;4432;50.890;4.744;2023-04-03T11:47:56;2.07;;;1.20;;
8791;SDS011;4432;50.890;4.744;2023-04-03T11:53:00;0.87;;;0.80;;
8791;SDS011;4432;50.890;4.744;2023-04-03T12:08:29;1.60;;;1.33;;
8791;SDS011;4432;50.890;4.744;2023-04-03T12:16:03;1.90;;;0.90;;
8791;SDS011;4432;50.890;4.744;2023-04-03T12:21:14;1.37;;;1.13;;
8791;SDS011;4432;50.890;4.744;2023-04-03T12:48:39;1.30;;;0.93;;
8791;SDS011;4432;50.890;4.744;2023-04-03T12:51:16;1.77;;;0.97;;
8791;SDS011;4432;50.890;4.744;2023-04-03T12:54:50;1.23;;;1.13;;
8791;SDS011;4432;50.890;4.744;2023-04-03T12:57:18;1.73;;;0.93;;
8791;SDS011;4432;50.890;4.744;2023-04-03T12:59:45;1.27;;;1.17;;
8791;SDS011;4432;50.890;4.744;2023-04-03T13:02:31;0.97;;;0.93;;
8791;SDS011;4432;50.890;4.744;2023-04-03T13:05:06;0.80;;;0.80;;
8791;SDS011;4432;50.890;4.744;2023-04-03T13:07:34;1.80;;;1.03;;
8791;SDS011;4432;50.890;4.744;2023-04-03T13:10:24;1.47;;;1.20;;
8791;SDS011;4432;50.890;4.744;2023-04-03T13:12:54;1.90;;;1.30;;
8791;SDS011;4432;50.890;4.744;2023-04-03T13:15:26;1.93;;;1.43;;
8791;SDS011;4432;50.890;4.744;2023-04-03T13:17:53;2.70;;;1.10;;
8791;SDS011;4432;50.890;4.744;2023-04-03T13:20:22;1.40;;;1.13;;
8791;SDS011;4432;50.890;4.744;2023-04-03T13:25:34;1.20;;;1.10;;
8791;SDS011;4432;50.890;4.744;2023-04-03T13:28:03;1.30;;;1.20;;
8791;SDS011;4432;50.890;4.744;2023-04-03T13:30:31;1.93;;;1.03;;
8791;SDS011;4432;50.890;4.744;2023-04-03T13:33:03;1.00;;;0.90;;
8791;SDS011;4432;50.890;4.744;2023-04-03T13:38:19;1.63;;;0.93;;
8791;SDS011;4432;50.890;4.744;2023-04-03T13:40:50;1.17;;;1.07;;
8791;SDS011;4432;50.890;4.744;2023-04-03T13:43:25;2.33;;;1.17;;
8791;SDS011;4432;50.890;4.744;2023-04-03T13:46:19;1.73;;;0.90;;
8791;SDS011;4432;50.890;4.744;2023-04-03T13:48:51;2.50;;;1.10;;
8791;SDS011;4432;50.890;4.744;2023-04-03T13:51:19;0.80;;;0.80;;
8791;SDS011;4432;50.890;4.744;2023-04-03T13:56:34;2.23;;;1.27;;
8791;SDS011;4432;50.890;4.744;2023-04-03T14:06:57;1.70;;;1.00;;
8791;SDS011;4432;50.890;4.744;2023-04-03T14:09:24;1.00;;;1.00;;
8791;SDS011;4432;50.890;4.744;2023-04-03T14:11:53;0.90;;;0.90;;
8791;SDS011;4432;50.890;4.744;2023-04-03T14:14:27;1.13;;;0.70;;
8791;SDS011;4432;50.890;4.744;2023-04-03T14:16:57;0.80;;;0.80;;
8791;SDS011;4432;50.890;4.744;2023-04-03T14:19:26;0.77;;;0.77;;
8791;SDS011;4432;50.890;4.744;2023-04-03T14:21:55;1.90;;;1.00;;
8791;SDS011;4432;50.890;4.744;2023-04-03T14:24:21;1.93;;;1.10;;
8791;SDS011;4432;50.890;4.744;2023-04-03T14:26:48;2.53;;;1.20;;
8791;SDS011;4432;50.890;4.744;2023-04-03T14:29:16;3.73;;;1.20;;
8791;SDS011;4432;50.890;4.744;2023-04-03T14:31:43;1.93;;;1.10;;
8791;SDS011;4432;50.890;4.744;2023-04-03T14:34:11;1.33;;;1.00;;
8791;SDS011;4432;50.890;4.744;2023-04-03T14:36:37;1.20;;;1.20;;
8791;SDS011;4432;50.890;4.744;2023-04-03T14:39:04;0.90;;;0.90;;
8791;SDS011;4432;50.890;4.744;2023-04-03T14:41:31;0.80;;;0.80;;
8791;SDS011;4432;50.890;4.744;2023-04-03T14:43:57;1.10;;;1.00;;
8791;SDS011;4432;50.890;4.744;2023-04-03T14:46:28;1.57;;;1.43;;
8791;SDS011;4432;50.890;4.744;2023-04-03T14:49:00;4.10;;;1.57;;
8791;SDS011;4432;50.890;4.744;2023-04-03T14:51:26;1.37;;;1.17;;
8791;SDS011;4432;50.890;4.744;2023-04-03T14:53:52;3.13;;;1.37;;
8791;SDS011;4432;50.890;4.744;2023-04-03T14:56:22;1.73;;;1.10;;
8791;SDS011;4432;50.890;4.744;2023-04-03T14:58:54;2.53;;;0.97;;
8791;SDS011;4432;50.890;4.744;2023-04-03T15:01:22;2.20;;;1.30;;
8791;SDS011;4432;50.890;4.744;2023-04-03T15:03:48;2.67;;;1.37;;
8791;SDS011;4432;50.890;4.744;2023-04-03T15:06:14;1.10;;;1.00;;
8791;SDS011;4432;50.890;4.744;2023-04-03T15:08:41;1.53;;;1.43;;
8791;SDS011;4432;50.890;4.744;2023-04-03T15:11:09;1.67;;;1.00;;
8791;SDS011;4432;50.890;4.744;2023-04-03T15:13:35;1.50;;;1.40;;
8791;SDS011;4432;50.890;4.744;2023-04-03T15:16:02;1.43;;;1.17;;
8791;SDS011;4432;50.890;4.744;2023-04-03T15:18:31;0.90;;;0.90;;
8791;SDS011;4432;50.890;4.744;2023-04-03T15:21:03;1.37;;;1.27;;
8791;SDS011;4432;50.890;4.744;2023-04-03T15:23:29;1.20;;;1.20;;
8791;SDS011;4432;50.890;4.744;2023-04-03T15:25:55;1.10;;;1.00;;
8791;SDS011;4432;50.890;4.744;2023-04-03T15:30:55;3.27;;;1.13;;
8791;SDS011;4432;50.890;4.744;2023-04-03T15:33:21;1.77;;;1.20;;
8791;SDS011;4432;50.890;4.744;2023-04-03T15:35:47;1.23;;;1.10;;
8791;SDS011;4432;50.890;4.744;2023-04-03T15:38:13;1.70;;;1.10;;
8791;SDS011;4432;50.890;4.744;2023-04-03T15:40:38;1.43;;;1.33;;
8791;SDS011;4432;50.890;4.744;2023-04-03T15:43:05;5.13;;;1.60;;
8791;SDS011;4432;50.890;4.744;2023-04-03T15:45:32;2.87;;;1.20;;
8791;SDS011;4432;50.890;4.744;2023-04-03T15:48:00;1.23;;;1.13;;
8791;SDS011;4432;50.890;4.744;2023-04-03T15:50:27;3.93;;;1.30;;
8791;SDS011;4432;50.890;4.744;2023-04-03T15:52:52;1.93;;;1.10;;
8791;SDS011;4432;50.890;4.744;2023-04-03T15:55:23;1.87;;;1.30;;
8791;SDS011;4432;50.890;4.744;2023-04-03T15:57:51;3.10;;;1.77;;
8791;SDS011;4432;50.890;4.744;2023-04-03T16:00:17;3.13;;;1.30;;
8791;SDS011;4432;50.890;4.744;2023-04-03T16:02:45;1.20;;;1.10;;
8791;SDS011;4432;50.890;4.744;2023-04-03T16:05:12;1.03;;;0.93;;
8791;SDS011;4432;50.890;4.744;2023-04-03T16:07:39;1.07;;;0.93;;
8791;SDS011;4432;50.890;4.744;2023-04-03T16:10:06;1.27;;;1.10;;
8791;SDS011;4432;50.890;4.744;2023-04-03T16:12:32;1.20;;;1.10;;
8791;SDS011;4432;50.890;4.744;2023-04-03T16:14:58;1.27;;;1.17;;
8791;SDS011;4432;50.890;4.744;2023-04-03T16:17:25;2.13;;;1.43;;
8791;SDS011;4432;50.890;4.744;2023-04-03T16:19:52;3.73;;;1.53;;
8791;SDS011;4432;50.890;4.744;2023-04-03T16:22:20;2.13;;;1.37;;
8791;SDS011;4432;50.890;4.744;2023-04-03T16:24:46;3.17;;;1.20;;
8791;SDS011;4432;50.890;4.744;2023-04-03T16:27:12;3.00;;;1.37;;
8791;SDS011;4432;50.890;4.744;2023-04-03T16:29:38;2.10;;;1.20;;
8791;SDS011;4432;50.890;4.744;2023-04-03T16:32:04;1.70;;;1.20;;
8791;SDS011;4432;50.890;4.744;2023-04-03T16:34:30;2.27;;;1.20;;
8791;SDS011;4432;50.890;4.744;2023-04-03T16:36:57;6.37;;;1.43;;
8791;SDS011;4432;50.890;4.744;2023-04-03T16:39:23;5.80;;;1.63;;
8791;SDS011;4432;50.890;4.744;2023-04-03T16:41:49;1.57;;;1.13;;
8791;SDS011;4432;50.890;4.744;2023-04-03T16:44:15;1.13;;;1.03;;
8791;SDS011;4432;50.890;4.744;2023-04-03T16:46:40;0.93;;;0.73;;
8791;SDS011;4432;50.890;4.744;2023-04-03T16:49:06;1.30;;;1.20;;
8791;SDS011;4432;50.890;4.744;2023-04-03T16:51:32;1.37;;;1.10;;
8791;SDS011;4432;50.890;4.744;2023-04-03T16:53:58;3.53;;;1.33;;
8791;SDS011;4432;50.890;4.744;2023-04-03T16:56:24;1.20;;;1.10;;
8791;SDS011;4432;50.890;4.744;2023-04-03T16:58:52;2.63;;;1.00;;
8791;SDS011;4432;50.890;4.744;2023-04-03T17:01:19;1.47;;;1.00;;
8791;SDS011;4432;50.890;4.744;2023-04-03T17:03:46;1.07;;;0.97;;
8791;SDS011;4432;50.890;4.744;2023-04-03T17:06:13;6.57;;;1.53;;
8791;SDS011;4432;50.890;4.744;2023-04-03T17:08:43;3.67;;;1.73;;
8791;SDS011;4432;50.890;4.744;2023-04-03T17:11:10;4.40;;;1.87;;
8791;SDS011;4432;50.890;4.744;2023-04-03T17:13:35;3.27;;;1.63;;
8791;SDS011;4432;50.890;4.744;2023-04-03T17:16:02;1.83;;;1.20;;
8791;SDS011;4432;50.890;4.744;2023-04-03T17:18:30;2.77;;;1.80;;
8791;SDS011;4432;50.890;4.744;2023-04-03T17:20:57;2.00;;;1.00;;
8791;SDS011;4432;50.890;4.744;2023-04-03T17:23:24;2.00;;;1.10;;
8791;SDS011;4432;50.890;4.744;2023-04-03T17:25:51;0.90;;;0.90;;
8791;SDS011;4432;50.890;4.744;2023-04-03T17:28:19;1.57;;;1.10;;
8791;SDS011;4432;50.890;4.744;2023-04-03T17:30:46;4.13;;;1.03;;
8791;SDS011;4432;50.890;4.744;2023-04-03T17:33:12;3.37;;;1.23;;
8791;SDS011;4432;50.890;4.744;2023-04-03T17:35:38;1.83;;;1.10;;
8791;SDS011;4432;50.890;4.744;2023-04-03T17:38:04;4.10;;;1.27;;
8791;SDS011;4432;50.890;4.744;2023-04-03T17:40:30;1.00;;;0.90;;
8791;SDS011;4432;50.890;4.744;2023-04-03T17:42:56;1.63;;;1.20;;
8791;SDS011;4432;50.890;4.744;2023-04-03T17:45:21;3.03;;;1.23;;
8791;SDS011;4432;50.890;4.744;2023-04-03T17:47:50;1.20;;;0.90;;